createdAt,value
2022-08-24T00:06:56.569Z,23.06
2022-08-24T00:17:20.378Z,22.79
2022-08-24T00:27:42.212Z,22.76
2022-08-24T00:38:03.950Z,22.74
2022-08-24T00:48:30.462Z,22.74
2022-08-24T00:58:57.487Z,22.56
2022-08-24T01:09:19.093Z,22.44
2022-08-24T01:19:47.676Z,22.37
2022-08-24T01:30:14.027Z,22.48
2022-08-24T01:40:44.061Z,22.27
2022-08-24T01:51:05.798Z,22.01
2022-08-24T02:01:30.483Z,21.97
2022-08-24T02:11:52.100Z,21.94
2022-08-24T02:22:13.643Z,21.68
2022-08-24T02:32:35.193Z,21.59
2022-08-24T02:42:56.758Z,21.41
2022-08-24T02:53:20.666Z,21.39
2022-08-24T03:03:42.210Z,21.32
2022-08-24T03:14:03.910Z,21.20
2022-08-24T03:24:25.595Z,21.18
2022-08-24T03:34:47.131Z,21.13
2022-08-24T03:45:09.944Z,20.92
2022-08-24T03:55:34.172Z,20.80
2022-08-24T04:05:55.668Z,20.67
2022-08-24T04:16:20.233Z,20.50
2022-08-24T04:26:45.003Z,20.50
2022-08-24T04:37:11.235Z,20.39
2022-08-24T04:47:33.005Z,20.38
2022-08-24T04:57:54.603Z,20.38
2022-08-24T05:08:20.218Z,20.28
2022-08-24T05:18:42.037Z,20.41
2022-08-24T05:29:03.876Z,20.38
2022-08-24T05:39:25.419Z,20.32
2022-08-24T05:49:48.002Z,20.35
2022-08-24T06:00:11.941Z,20.24
2022-08-24T06:10:43.461Z,20.60
2022-08-24T06:21:07.680Z,20.84
2022-08-24T06:31:39.342Z,21.15
2022-08-24T06:42:01.699Z,21.65
2022-08-24T06:52:26.740Z,21.81
2022-08-24T07:02:48.793Z,22.11
2022-08-24T07:13:11.500Z,22.32
2022-08-24T07:23:42.546Z,22.60
2022-08-24T07:34:07.092Z,22.73
2022-08-24T07:44:28.806Z,23.12
2022-08-24T07:54:50.338Z,23.09
2022-08-24T08:05:13.766Z,23.61
2022-08-24T08:15:35.389Z,23.43
2022-08-24T08:26:01.914Z,23.81
2022-08-24T08:36:23.618Z,24.33
2022-08-24T08:46:54.248Z,24.85
2022-08-24T08:57:38.122Z,25.04
2022-08-24T09:08:22.547Z,25.43
2022-08-24T09:19:03.763Z,25.52
2022-08-24T09:29:51.984Z,25.83
2022-08-24T09:40:38.269Z,25.87
2022-08-24T09:51:46.844Z,26.11
2022-08-24T10:02:27.241Z,26.58
2022-08-24T10:13:14.137Z,26.64
2022-08-24T10:24:03.493Z,26.79
2022-08-24T10:34:38.856Z,27.21
2022-08-24T10:45:07.572Z,27.53
2022-08-24T10:55:32.132Z,27.96
2022-08-24T11:05:55.767Z,28.21
2022-08-24T11:16:25.849Z,28.35
2022-08-24T11:26:55.212Z,28.24
2022-08-24T11:37:24.026Z,28.60
2022-08-24T11:48:12.358Z,29.19
2022-08-24T11:58:40.456Z,29.62
2022-08-24T12:09:46.847Z,29.37
2022-08-24T12:20:25.790Z,29.90
2022-08-24T12:30:47.813Z,30.00
2022-08-24T12:41:32.141Z,29.76
2022-08-24T12:52:05.926Z,29.17
2022-08-24T13:02:35.426Z,29.58
2022-08-24T13:13:08.450Z,29.17
2022-08-24T13:23:29.978Z,29.05
2022-08-24T13:34:00.781Z,29.31
2022-08-24T13:44:49.470Z,29.35
2022-08-24T13:55:29.809Z,29.68
2022-08-24T14:05:57.358Z,29.38
2022-08-24T14:16:53.336Z,30.45
2022-08-24T14:27:50.324Z,29.93
2022-08-24T14:38:23.944Z,29.57
2022-08-24T14:48:59.402Z,29.81
2022-08-24T14:59:56.283Z,29.53
2022-08-24T15:10:26.235Z,29.55
2022-08-24T15:21:00.887Z,29.38
2022-08-24T15:31:28.919Z,29.61
2022-08-24T15:41:50.651Z,29.71
2022-08-24T15:52:37.074Z,30.10
2022-08-24T16:03:19.634Z,29.85
2022-08-24T16:13:42.939Z,30.12
2022-08-24T16:24:23.037Z,30.18
2022-08-24T16:34:47.592Z,30.09
2022-08-24T16:45:11.166Z,30.18
2022-08-24T16:55:32.960Z,30.10
2022-08-24T17:05:55.932Z,29.93
2022-08-24T17:16:21.614Z,29.81
2022-08-24T17:26:44.955Z,29.49
2022-08-24T17:37:10.898Z,29.14
2022-08-24T17:47:33.728Z,28.79
2022-08-24T17:57:55.346Z,28.59
2022-08-24T18:08:17.012Z,28.38
2022-08-24T18:18:38.844Z,28.09
2022-08-24T18:29:10.200Z,27.77
2022-08-24T18:39:32.983Z,27.59
2022-08-24T18:49:55.011Z,27.49
2022-08-24T19:00:16.573Z,27.25
2022-08-24T19:10:38.349Z,27.10
2022-08-24T19:20:59.943Z,26.82
2022-08-24T19:31:23.751Z,26.62
2022-08-24T19:41:49.698Z,26.51
2022-08-24T19:52:11.560Z,26.29
2022-08-24T20:02:33.156Z,25.98
2022-08-24T20:12:54.882Z,25.89
2022-08-24T20:23:16.570Z,25.61
2022-08-24T20:33:38.534Z,25.48
2022-08-24T20:44:01.560Z,25.28
2022-08-24T20:54:23.197Z,25.14
2022-08-24T21:04:44.849Z,24.90
2022-08-24T21:15:06.833Z,24.84
2022-08-24T21:25:28.398Z,24.56
2022-08-24T21:35:50.068Z,24.56
2022-08-24T21:46:13.460Z,24.31
2022-08-24T21:56:35.162Z,24.29
2022-08-24T22:06:57.232Z,23.93
2022-08-24T22:17:18.838Z,23.92
2022-08-24T22:27:45.551Z,23.80
2022-08-24T22:38:07.847Z,23.56
2022-08-24T22:48:29.935Z,23.64
2022-08-24T22:58:52.349Z,23.50
2022-08-24T23:09:13.887Z,23.36
2022-08-24T23:19:54.099Z,23.19
2022-08-24T23:30:15.794Z,23.20
2022-08-24T23:40:41.153Z,22.97
2022-08-24T23:51:02.763Z,23.02
